SXS7AR LTAC-EDDF
Flight info
| Callsign | SXS7AR |
|---|---|
| Flight time | N/A |
| Altitude | 36000 |
| Route | YAVRU UA4 ERKAL UL615 VADEN L610 UTEKA/N0458F400 DCT LAKIK DCT OBUTI DCT SIMBA DCT AKINI T161 DEBHI DEBHI1D |
| Aircraft | B38M/M-SDE1FGHILORVWXY/HB1 |
Departure
| Time | 2026-04-29 18:11 |
|---|---|
| Airport | Esenboğa International Airport (LTAC) |
Arrival
| Time | N/A |
|---|---|
| Airport | Frankfurt Main Airport (EDDF) |
| Time | Latitude | Longitude | Altitude | Speed | Heading |
|---|---|---|---|---|---|
| 2026-04-29 18:11 | 40.24999 | 33.03922 | 8601 ft | 274 kts | 308° |
| 2026-04-29 18:11 | 40.26254 | 33.01921 | 9069 ft | 294 kts | 308° |
| 2026-04-29 18:12 | 40.27586 | 32.99771 | 9508 ft | 314 kts | 308° |
| 2026-04-29 18:12 | 40.29005 | 32.97471 | 9892 ft | 334 kts | 308° |
| 2026-04-29 18:12 | 40.30505 | 32.95022 | 10228 ft | 353 kts | 308° |
| 2026-04-29 18:12 | 40.32057 | 32.92458 | 10671 ft | 365 kts | 308° |
| 2026-04-29 18:13 | 40.33637 | 32.89851 | 11468 ft | 365 kts | 307° |
| 2026-04-29 18:13 | 40.34954 | 32.86995 | 12186 ft | 367 kts | 290° |
| 2026-04-29 18:13 | 40.35586 | 32.83741 | 12915 ft | 371 kts | 283° |
| 2026-04-29 18:13 | 40.36217 | 32.80439 | 13637 ft | 374 kts | 284° |
| 2026-04-29 18:14 | 40.36848 | 32.77112 | 14358 ft | 377 kts | 284° |
| 2026-04-29 18:14 | 40.37475 | 32.73770 | 15066 ft | 379 kts | 284° |
| 2026-04-29 18:14 | 40.38097 | 32.70445 | 15754 ft | 381 kts | 284° |
| 2026-04-29 18:14 | 40.38735 | 32.67020 | 16480 ft | 382 kts | 283° |
| 2026-04-29 18:15 | 40.39365 | 32.63632 | 17272 ft | 380 kts | 283° |
| 2026-04-29 18:15 | 40.39982 | 32.60311 | 18444 ft | 369 kts | 283° |
| 2026-04-29 18:15 | 40.40578 | 32.57096 | 19287 ft | 365 kts | 283° |
| 2026-04-29 18:15 | 40.41180 | 32.53838 | 19810 ft | 370 kts | 283° |
| 2026-04-29 18:16 | 40.41789 | 32.50542 | 20399 ft | 372 kts | 283° |
| 2026-04-29 18:16 | 40.42400 | 32.47228 | 20997 ft | 374 kts | 283° |
| 2026-04-29 18:16 | 40.43016 | 32.43881 | 21347 ft | 384 kts | 283° |
| 2026-04-29 18:16 | 40.43655 | 32.40400 | 21365 ft | 400 kts | 283° |
| 2026-04-29 18:17 | 40.44318 | 32.36782 | 21424 ft | 414 kts | 283° |
| 2026-04-29 18:17 | 40.44995 | 32.33084 | 21890 ft | 416 kts | 283° |
| 2026-04-29 18:17 | 40.45673 | 32.29372 | 22366 ft | 419 kts | 283° |
| 2026-04-29 18:17 | 40.46355 | 32.25629 | 22835 ft | 422 kts | 283° |
| 2026-04-29 18:18 | 40.47044 | 32.21845 | 23113 ft | 429 kts | 283° |
| 2026-04-29 18:18 | 40.47944 | 32.18095 | 23558 ft | 431 kts | 291° |
| 2026-04-29 18:18 | 40.49030 | 32.14456 | 23933 ft | 435 kts | 290° |
| 2026-04-29 18:18 | 40.50126 | 32.10738 | 24285 ft | 437 kts | 290° |
| 2026-04-29 18:19 | 40.51229 | 32.07007 | 24688 ft | 439 kts | 290° |
| 2026-04-29 18:19 | 40.52337 | 32.03260 | 25059 ft | 441 kts | 290° |
| 2026-04-29 18:19 | 40.53449 | 31.99499 | 25443 ft | 443 kts | 290° |
| 2026-04-29 18:19 | 40.54564 | 31.95716 | 25821 ft | 444 kts | 290° |
| 2026-04-29 18:20 | 40.55682 | 31.91922 | 26148 ft | 446 kts | 290° |
| 2026-04-29 18:20 | 40.56807 | 31.88095 | 26494 ft | 446 kts | 290° |
| 2026-04-29 18:20 | 40.57921 | 31.84297 | 26908 ft | 445 kts | 289° |
| 2026-04-29 18:20 | 40.58880 | 31.80431 | 27335 ft | 443 kts | 287° |
| 2026-04-29 18:21 | 40.59809 | 31.76626 | 27761 ft | 441 kts | 288° |
| 2026-04-29 18:21 | 40.60756 | 31.72793 | 28203 ft | 440 kts | 288° |
| 2026-04-29 18:21 | 40.61702 | 31.68978 | 28662 ft | 438 kts | 288° |
| 2026-04-29 18:21 | 40.62643 | 31.65178 | 29101 ft | 436 kts | 288° |
| 2026-04-29 18:22 | 40.63583 | 31.61383 | 29511 ft | 435 kts | 288° |
| 2026-04-29 18:22 | 40.64516 | 31.57607 | 29977 ft | 433 kts | 288° |
| 2026-04-29 18:22 | 40.65446 | 31.53840 | 30376 ft | 432 kts | 288° |
| 2026-04-29 18:22 | 40.66371 | 31.50086 | 30739 ft | 430 kts | 288° |
| 2026-04-29 18:23 | 40.67291 | 31.46345 | 31111 ft | 428 kts | 288° |
| 2026-04-29 18:23 | 40.68207 | 31.42615 | 31476 ft | 427 kts | 288° |
| 2026-04-29 18:23 | 40.69120 | 31.38891 | 31808 ft | 426 kts | 288° |
| 2026-04-29 18:23 | 40.70027 | 31.35186 | 32178 ft | 424 kts | 288° |
| 2026-04-29 18:24 | 40.70929 | 31.31494 | 32557 ft | 423 kts | 288° |
| 2026-04-29 18:24 | 40.71827 | 31.27816 | 32916 ft | 421 kts | 288° |
| 2026-04-29 18:24 | 40.72720 | 31.24150 | 33281 ft | 420 kts | 288° |
| 2026-04-29 18:24 | 40.73601 | 31.20531 | 33639 ft | 418 kts | 288° |
| 2026-04-29 18:25 | 40.74497 | 31.16841 | 33968 ft | 417 kts | 288° |
| 2026-04-29 18:25 | 40.75366 | 31.13259 | 34301 ft | 415 kts | 288° |
| 2026-04-29 18:25 | 40.76244 | 31.09630 | 34570 ft | 415 kts | 288° |
| 2026-04-29 18:25 | 40.77124 | 31.05992 | 34782 ft | 416 kts | 288° |
| 2026-04-29 18:26 | 40.78002 | 31.02353 | 35028 ft | 416 kts | 288° |
| 2026-04-29 18:26 | 40.78879 | 30.98713 | 35289 ft | 415 kts | 288° |
| 2026-04-29 18:26 | 40.79614 | 30.95660 | 35501 ft | 415 kts | 288° |
| 2026-04-29 18:26 | 40.80486 | 30.92033 | 35772 ft | 415 kts | 288° |
| 2026-04-29 18:27 | 40.81357 | 30.88401 | 35996 ft | 415 kts | 288° |
| 2026-04-29 18:27 | 40.82226 | 30.84774 | 36239 ft | 414 kts | 288° |
| 2026-04-29 18:27 | 40.83092 | 30.81152 | 36471 ft | 414 kts | 288° |
| 2026-04-29 18:27 | 40.83949 | 30.77567 | 36688 ft | 414 kts | 288° |
| 2026-04-29 18:28 | 40.84814 | 30.73943 | 36932 ft | 413 kts | 287° |
| 2026-04-29 18:28 | 40.85676 | 30.70325 | 37148 ft | 413 kts | 287° |
| 2026-04-29 18:28 | 40.86514 | 30.66685 | 37350 ft | 413 kts | 284° |
| 2026-04-29 18:28 | 40.87147 | 30.62983 | 37567 ft | 413 kts | 283° |
| 2026-04-29 18:29 | 40.87803 | 30.59296 | 37753 ft | 413 kts | 284° |
| 2026-04-29 18:29 | 40.88242 | 30.56856 | 37882 ft | 412 kts | 284° |
| 2026-04-29 18:29 | 40.88910 | 30.53172 | 38090 ft | 412 kts | 284° |
| 2026-04-29 18:30 | 40.89939 | 30.47502 | 38149 ft | 411 kts | 284° |
| 2026-04-29 18:30 | 40.91172 | 30.40690 | 38148 ft | 410 kts | 284° |
| 2026-04-29 18:31 | 40.92487 | 30.33351 | 38143 ft | 410 kts | 283° |
| 2026-04-29 18:31 | 40.93764 | 30.26095 | 38150 ft | 410 kts | 283° |
| 2026-04-29 18:32 | 40.95054 | 30.18741 | 38149 ft | 410 kts | 283° |
| 2026-04-29 18:32 | 40.96974 | 30.07747 | 38147 ft | 410 kts | 283° |
| 2026-04-29 18:33 | 40.98255 | 30.00371 | 38151 ft | 410 kts | 283° |
| 2026-04-29 18:33 | 40.99507 | 29.93048 | 38151 ft | 410 kts | 283° |
| 2026-04-29 18:34 | 41.00557 | 29.86872 | 38144 ft | 410 kts | 283° |
| 2026-04-29 18:34 | 41.02008 | 29.78307 | 38142 ft | 410 kts | 283° |
| 2026-04-29 18:35 | 41.03250 | 29.70942 | 38141 ft | 409 kts | 283° |
| 2026-04-29 18:35 | 41.04489 | 29.63576 | 38139 ft | 410 kts | 283° |
| 2026-04-29 18:36 | 41.05725 | 29.56245 | 38138 ft | 410 kts | 283° |
| 2026-04-29 18:36 | 41.06733 | 29.50239 | 38135 ft | 409 kts | 283° |
| 2026-04-29 18:37 | 41.07966 | 29.42868 | 38136 ft | 409 kts | 283° |
| 2026-04-29 18:37 | 41.09194 | 29.35491 | 38134 ft | 409 kts | 283° |
| 2026-04-29 18:38 | 41.10417 | 29.28118 | 38130 ft | 409 kts | 283° |
| 2026-04-29 18:38 | 41.11628 | 29.20788 | 38137 ft | 409 kts | 283° |
| 2026-04-29 18:39 | 41.13214 | 29.13572 | 38113 ft | 408 kts | 300° |
| 2026-04-29 18:39 | 41.15792 | 29.08318 | 38112 ft | 409 kts | 301° |
| 2026-04-29 18:40 | 41.16011 | 29.07861 | 38123 ft | 409 kts | 301° |
| 2026-04-29 18:41 | 41.19125 | 29.01501 | 38140 ft | 410 kts | 302° |
| 2026-04-29 18:42 | 41.20583 | 28.98567 | 38144 ft | 409 kts | 302° |
| 2026-04-29 18:42 | 41.23730 | 28.92255 | 38152 ft | 410 kts | 302° |
| 2026-04-29 18:43 | 41.26430 | 28.86837 | 38155 ft | 410 kts | 302° |
| 2026-04-29 18:43 | 41.29575 | 28.80516 | 38157 ft | 410 kts | 302° |
| 2026-04-29 18:44 | 41.32188 | 28.75255 | 38156 ft | 410 kts | 302° |
| 2026-04-29 18:44 | 41.35252 | 28.69073 | 38158 ft | 410 kts | 302° |
| 2026-04-29 18:45 | 41.38032 | 28.63453 | 38154 ft | 410 kts | 302° |